Time;durP1;ratioP1;P1;durP2;ratioP2;P2;SDS_P1;SDS_P2;PMS_P1;PMS_P2;Temp;Humidity;BMP_temperature;BMP_pressure;BME280_temperature;BME280_humidity;BME280_pressure;Samples;Min_cycle;Max_cycle;Signal;HPM_P1;HPM_P2
2022/10/08 00:01:14;;;;;;;8.70;2.90;;;18.30;99.90;;;;;;4940491;29;20484;-69
2022/10/08 00:03:46;;;;;;;6.30;2.40;;;18.30;99.90;;;;;;4941431;28;20467;-69
2022/10/08 00:06:18;;;;;;;5.80;2.67;;;18.30;99.90;;;;;;4931364;29;20511;-69
2022/10/08 00:08:50;;;;;;;6.85;2.92;;;18.20;99.90;;;;;;4940815;29;20667;-69
2022/10/08 00:11:21;;;;;;;6.43;2.67;;;18.20;99.90;;;;;;4956983;28;20439;-69
2022/10/08 00:13:50;;;;;;;5.07;2.70;;;18.20;99.90;;;;;;4950631;28;20466;-69
2022/10/08 00:16:48;;;;;;;5.75;2.78;;;18.10;99.90;;;;;;4940640;29;21207;-69
2022/10/08 00:19:15;;;;;;;8.13;2.90;;;18.10;99.90;;;;;;4930125;29;20581;-69
2022/10/08 00:21:44;;;;;;;4.80;2.80;;;18.10;99.90;;;;;;4950844;28;20428;-69
2022/10/08 00:24:15;;;;;;;4.40;2.50;;;18.10;99.90;;;;;;4939540;28;20509;-69
2022/10/08 00:26:42;;;;;;;6.77;2.70;;;18.10;99.90;;;;;;4943916;28;20419;-69
2022/10/08 00:29:14;;;;;;;4.82;2.70;;;18.20;99.90;;;;;;4938775;29;20496;-69
2022/10/08 00:31:44;;;;;;;5.43;2.67;;;18.20;99.90;;;;;;4960954;28;20422;-69
2022/10/08 00:34:19;;;;;;;5.50;2.80;;;18.20;99.90;;;;;;4961549;28;20973;-69
2022/10/08 00:36:50;;;;;;;4.97;2.80;;;18.10;99.90;;;;;;4941691;29;20472;-69
2022/10/08 00:39:22;;;;;;;6.50;2.90;;;18.10;99.90;;;;;;4944240;29;20453;-69
2022/10/08 00:41:53;;;;;;;6.55;2.80;;;18.00;99.90;;;;;;4962154;28;20418;-69
2022/10/08 00:44:51;;;;;;;8.05;2.80;;;18.10;99.90;;;;;;4947749;29;20445;-69
2022/10/08 00:47:31;;;;;;;5.35;2.60;;;18.00;99.90;;;;;;4954920;28;20445;-69
2022/10/08 00:50:20;;;;;;;6.83;2.70;;;18.00;99.90;;;;;;4950347;28;20488;-69
2022/10/08 00:53:04;;;;;;;8.63;2.92;;;18.00;99.90;;;;;;4931782;29;20430;-69
2022/10/08 00:55:32;;;;;;;5.55;2.85;;;18.00;99.90;;;;;;4936284;29;20417;-69
2022/10/08 00:58:08;;;;;;;5.13;2.70;;;18.00;99.90;;;;;;4947835;28;20426;-69
2022/10/08 01:00:34;;;;;;;6.47;2.83;;;18.00;99.90;;;;;;4943013;28;20883;-68
2022/10/08 01:03:02;;;;;;;4.60;2.80;;;18.00;99.90;;;;;;4947955;28;20895;-69
2022/10/08 01:05:55;;;;;;;6.65;2.67;;;17.90;99.90;;;;;;4948854;28;20420;-69
2022/10/08 01:08:47;;;;;;;4.88;2.80;;;17.90;99.90;;;;;;4948208;29;20428;-69
2022/10/08 01:11:41;;;;;;;6.67;2.90;;;17.90;99.90;;;;;;4947131;29;20873;-69
2022/10/08 01:14:38;;;;;;;6.20;2.77;;;18.00;99.90;;;;;;4945553;29;21664;-69
2022/10/08 01:17:47;;;;;;;5.80;2.70;;;17.80;99.90;;;;;;4947022;28;20421;-69
2022/10/08 01:21:00;;;;;;;6.70;2.95;;;17.70;99.90;;;;;;4947888;28;20410;-69
2022/10/08 01:23:35;;;;;;;5.68;2.65;;;17.70;99.90;;;;;;4945871;28;20410;-69
2022/10/08 01:26:38;;;;;;;7.30;2.85;;;17.70;99.90;;;;;;4949649;28;20422;-69
2022/10/08 01:29:36;;;;;;;6.25;2.90;;;17.70;99.90;;;;;;4963537;28;20425;-69
2022/10/08 01:32:21;;;;;;;6.67;2.70;;;17.70;99.90;;;;;;4943175;29;20428;-69
2022/10/08 01:35:03;;;;;;;6.27;3.10;;;17.70;99.90;;;;;;4949130;28;20780;-69
2022/10/08 01:37:37;;;;;;;7.45;3.17;;;17.40;99.90;;;;;;4944689;29;21016;-69
2022/10/08 01:40:13;;;;;;;6.72;3.00;;;17.40;99.90;;;;;;4938755;28;20425;-69
2022/10/08 01:42:41;;;;;;;7.72;2.92;;;17.50;99.90;;;;;;4964921;28;20418;-69
2022/10/08 01:45:15;;;;;;;6.20;2.73;;;17.60;99.90;;;;;;4932874;29;20238;-69
2022/10/08 01:47:47;;;;;;;9.57;3.10;;;17.70;99.90;;;;;;4951847;28;20660;-69
2022/10/08 01:50:27;;;;;;;5.63;2.90;;;17.80;99.90;;;;;;4934192;28;20458;-69
2022/10/08 01:53:10;;;;;;;5.75;3.05;;;17.80;99.90;;;;;;4956182;28;20431;-69
2022/10/08 01:55:41;;;;;;;6.38;2.95;;;17.80;99.90;;;;;;4946147;29;20484;-69
2022/10/08 01:58:32;;;;;;;5.47;2.70;;;17.80;99.90;;;;;;4953851;28;20421;-69
2022/10/08 02:01:17;;;;;;;8.85;3.10;;;17.80;99.90;;;;;;4934689;29;20487;-69
2022/10/08 02:04:31;;;;;;;5.78;2.83;;;17.80;99.90;;;;;;4947563;28;20484;-69
2022/10/08 02:06:36;;;;;;;6.20;2.83;;;17.80;99.90;;;;;;4947181;28;20434;-69
2022/10/08 02:09:04;;;;;;;6.07;2.83;;;17.90;99.90;;;;;;4932146;29;20484;-69
2022/10/08 02:11:32;;;;;;;6.28;2.70;;;17.80;99.90;;;;;;4948960;28;20895;-69
2022/10/08 02:14:00;;;;;;;7.28;3.05;;;17.80;99.90;;;;;;4948618;28;20513;-69
2022/10/08 02:16:29;;;;;;;5.13;2.90;;;17.80;99.90;;;;;;4931272;29;20799;-69
2022/10/08 02:19:21;;;;;;;4.72;2.90;;;17.80;99.90;;;;;;4962395;28;20432;-68
2022/10/08 02:21:51;;;;;;;6.70;3.00;;;17.70;99.90;;;;;;4943857;29;20941;-69
2022/10/08 02:24:39;;;;;;;7.45;2.65;;;17.70;99.90;;;;;;4948180;28;20504;-69
2022/10/08 02:27:10;;;;;;;5.78;3.00;;;17.70;99.90;;;;;;4946964;29;21044;-69
2022/10/08 02:30:10;;;;;;;5.77;2.90;;;17.70;99.90;;;;;;4928133;29;20409;-69
2022/10/08 02:33:01;;;;;;;5.60;2.80;;;17.60;99.90;;;;;;4940841;28;20757;-69
2022/10/08 02:35:44;;;;;;;5.20;2.67;;;17.70;99.90;;;;;;4944556;29;20425;-69
2022/10/08 02:38:24;;;;;;;4.85;2.67;;;17.60;99.90;;;;;;4948949;28;20492;-69
2022/10/08 02:40:59;;;;;;;7.05;2.83;;;17.60;99.90;;;;;;4949308;28;20512;-69
2022/10/08 02:43:32;;;;;;;4.95;2.53;;;17.60;99.90;;;;;;4947392;29;20927;-69
2022/10/08 02:46:16;;;;;;;5.80;2.75;;;17.60;99.90;;;;;;4931136;29;20426;-69
2022/10/08 02:48:58;;;;;;;5.97;2.90;;;17.60;99.90;;;;;;4941214;29;20419;-69
2022/10/08 02:51:29;;;;;;;5.88;2.80;;;17.50;99.90;;;;;;4934237;28;20777;-69
2022/10/08 02:53:58;;;;;;;6.15;2.85;;;17.50;99.90;;;;;;4958162;28;20421;-69
2022/10/08 02:56:35;;;;;;;7.68;3.00;;;17.50;99.90;;;;;;4935706;28;20526;-69
2022/10/08 02:59:02;;;;;;;5.30;2.60;;;17.40;99.90;;;;;;4929912;29;20445;-69
2022/10/08 03:01:54;;;;;;;5.18;2.90;;;17.40;99.90;;;;;;4927929;29;20415;-69
2022/10/08 03:04:43;;;;;;;5.03;2.85;;;17.40;99.90;;;;;;4938855;29;20406;-69
2022/10/08 03:07:12;;;;;;;6.30;3.03;;;17.50;99.90;;;;;;4947030;29;20835;-69
2022/10/08 03:09:50;;;;;;;5.60;2.87;;;17.50;99.90;;;;;;4947371;29;20508;-69
2022/10/08 03:12:20;;;;;;;6.03;2.90;;;17.30;99.90;;;;;;4933472;29;20425;-69
2022/10/08 03:14:49;;;;;;;7.93;2.88;;;17.30;99.90;;;;;;4962156;28;20446;-69
2022/10/08 03:17:24;;;;;;;5.47;3.10;;;17.40;99.90;;;;;;4951200;29;20530;-69
2022/10/08 03:19:51;;;;;;;5.47;2.88;;;17.40;99.90;;;;;;4948016;29;20465;-69
2022/10/08 03:22:18;;;;;;;6.90;3.20;;;17.40;99.90;;;;;;4942979;29;20464;-69
2022/10/08 03:24:44;;;;;;;5.15;2.65;;;17.40;99.90;;;;;;4950226;29;20445;-69
2022/10/08 03:27:11;;;;;;;7.13;3.00;;;17.30;99.90;;;;;;4951032;29;20485;-69
2022/10/08 03:29:38;;;;;;;6.53;3.00;;;17.30;99.90;;;;;;4952325;28;20437;-69
2022/10/08 03:32:06;;;;;;;6.85;2.80;;;17.20;99.90;;;;;;4967322;28;20512;-69
2022/10/08 03:34:32;;;;;;;8.13;3.00;;;17.30;99.90;;;;;;4957324;28;20433;-69
2022/10/08 03:36:58;;;;;;;8.00;3.00;;;17.30;99.90;;;;;;4962970;28;20471;-69
2022/10/08 03:39:24;;;;;;;6.00;3.08;;;17.10;99.90;;;;;;4952456;28;20425;-69
2022/10/08 03:41:51;;;;;;;5.40;2.95;;;17.10;99.90;;;;;;4950685;29;20445;-69
2022/10/08 03:44:22;;;;;;;6.05;3.10;;;17.00;99.90;;;;;;4951243;28;20425;-69
2022/10/08 03:46:48;;;;;;;6.60;2.80;;;17.00;99.90;;;;;;4934688;29;20501;-69
2022/10/08 03:49:15;;;;;;;8.15;2.72;;;17.00;99.90;;;;;;4950307;28;20437;-69
2022/10/08 03:51:41;;;;;;;5.95;2.80;;;17.10;99.90;;;;;;4946344;29;20414;-69
2022/10/08 03:54:16;;;;;;;4.72;2.80;;;17.10;99.90;;;;;;4950815;28;20433;-69
2022/10/08 03:56:43;;;;;;;5.13;2.90;;;17.10;99.90;;;;;;4935167;29;20562;-69
2022/10/08 03:59:10;;;;;;;4.72;3.00;;;17.10;99.90;;;;;;4937913;29;20512;-69
2022/10/08 04:01:38;;;;;;;6.22;2.90;;;17.10;99.90;;;;;;4950660;28;20565;-69
2022/10/08 04:04:04;;;;;;;4.93;2.90;;;17.10;99.90;;;;;;4941137;29;20410;-69
2022/10/08 04:06:30;;;;;;;7.47;3.00;;;17.10;99.90;;;;;;4945331;28;20946;-69
2022/10/08 04:08:59;;;;;;;5.38;2.80;;;17.10;99.90;;;;;;4951090;28;20437;-69
2022/10/08 04:11:29;;;;;;;5.43;2.78;;;17.10;99.90;;;;;;4933717;29;20418;-69
2022/10/08 04:13:55;;;;;;;6.38;3.10;;;17.00;99.90;;;;;;4948718;29;20476;-69
2022/10/08 04:16:22;;;;;;;6.95;2.80;;;17.00;99.90;;;;;;4942649;29;20939;-69
2022/10/08 04:18:48;;;;;;;8.27;2.97;;;17.00;99.90;;;;;;4934503;29;20413;-69
2022/10/08 04:21:17;;;;;;;6.35;2.97;;;17.00;99.90;;;;;;4950980;28;20509;-69
2022/10/08 04:23:44;;;;;;;6.22;2.95;;;17.00;99.90;;;;;;4937215;28;20431;-69
2022/10/08 04:26:13;;;;;;;7.68;2.60;;;17.00;99.90;;;;;;4941562;29;20417;-69
2022/10/08 04:28:43;;;;;;;6.63;3.03;;;17.00;99.90;;;;;;4943147;28;20973;-69
2022/10/08 04:31:15;;;;;;;6.00;3.22;;;17.00;99.90;;;;;;4948546;29;20438;-69
2022/10/08 04:33:42;;;;;;;6.53;3.20;;;17.10;99.90;;;;;;4934872;29;20430;-69
2022/10/08 04:36:13;;;;;;;10.00;3.10;;;17.10;99.90;;;;;;4938453;29;20425;-69
2022/10/08 04:38:41;;;;;;;7.00;3.08;;;17.10;99.90;;;;;;4948057;29;20480;-69
2022/10/08 04:41:14;;;;;;;5.90;3.30;;;17.10;99.90;;;;;;4945301;28;20436;-69
2022/10/08 04:43:44;;;;;;;6.85;2.70;;;17.20;99.90;;;;;;4961266;28;20413;-69
2022/10/08 04:46:15;;;;;;;5.05;2.70;;;17.20;99.90;;;;;;4947654;29;20421;-69
2022/10/08 04:48:48;;;;;;;5.85;3.10;;;17.30;99.90;;;;;;4960715;28;20437;-69
2022/10/08 04:51:15;;;;;;;5.78;3.00;;;17.30;99.90;;;;;;4948998;29;20456;-69
2022/10/08 04:53:42;;;;;;;5.95;2.80;;;17.30;99.90;;;;;;4950084;28;20537;-69
2022/10/08 04:56:15;;;;;;;4.60;2.95;;;17.30;99.90;;;;;;4946182;29;20446;-69
2022/10/08 04:58:42;;;;;;;8.50;2.80;;;17.40;99.90;;;;;;4930429;29;20742;-69
2022/10/08 05:01:15;;;;;;;5.40;2.90;;;17.40;99.90;;;;;;4941605;29;20452;-69
2022/10/08 05:03:49;;;;;;;5.97;2.88;;;17.50;99.90;;;;;;4946218;29;20521;-69
2022/10/08 05:06:20;;;;;;;5.32;2.92;;;17.50;99.90;;;;;;4934014;29;20429;-69
2022/10/08 05:08:47;;;;;;;6.88;2.90;;;17.60;99.90;;;;;;4946954;28;20448;-69
2022/10/08 05:11:17;;;;;;;7.30;2.83;;;17.70;99.90;;;;;;4950506;29;20899;-69
2022/10/08 05:13:48;;;;;;;5.80;2.97;;;17.80;99.90;;;;;;4950375;28;20495;-69
2022/10/08 05:16:17;;;;;;;4.50;2.70;;;17.90;99.90;;;;;;4944296;28;20490;-69
2022/10/08 05:18:44;;;;;;;5.50;2.77;;;18.00;99.90;;;;;;4945663;29;20417;-69
2022/10/08 05:21:15;;;;;;;5.57;2.97;;;18.10;99.90;;;;;;4949998;28;20690;-69
2022/10/08 05:23:42;;;;;;;5.05;2.67;;;18.10;99.90;;;;;;4948817;28;20413;-69
2022/10/08 05:26:21;;;;;;;7.17;2.60;;;18.20;99.90;;;;;;4947287;29;21015;-69
2022/10/08 05:28:51;;;;;;;4.72;2.55;;;18.20;99.90;;;;;;4949708;28;20425;-69
2022/10/08 05:31:17;;;;;;;4.15;2.40;;;18.30;99.90;;;;;;4949853;28;20441;-69
2022/10/08 05:33:44;;;;;;;4.97;2.40;;;18.30;99.90;;;;;;4947501;29;20466;-69
2022/10/08 05:36:21;;;;;;;4.82;2.30;;;18.40;99.90;;;;;;4929781;28;20442;-69
2022/10/08 05:38:48;;;;;;;4.88;2.50;;;18.40;99.90;;;;;;4944347;28;20795;-69
2022/10/08 05:41:18;;;;;;;5.03;2.63;;;18.50;99.90;;;;;;4949813;28;20653;-69
2022/10/08 05:43:45;;;;;;;5.05;2.30;;;18.40;99.90;;;;;;4962898;28;20550;-70
2022/10/08 05:46:13;;;;;;;3.97;2.45;;;18.40;99.90;;;;;;4928684;29;20416;-69
2022/10/08 05:48:40;;;;;;;4.97;2.30;;;18.40;99.90;;;;;;4947713;28;20512;-69
2022/10/08 05:51:16;;;;;;;7.05;2.40;;;18.50;99.90;;;;;;4947221;28;20910;-69
2022/10/08 05:53:46;;;;;;;3.60;2.40;;;18.60;99.90;;;;;;4941701;29;20868;-69
2022/10/08 05:56:17;;;;;;;5.60;2.30;;;18.60;99.90;;;;;;4937976;28;20431;-69
2022/10/08 05:58:45;;;;;;;3.33;2.17;;;18.70;99.90;;;;;;4941133;29;20428;-69
2022/10/08 06:01:30;;;;;;;3.55;2.10;;;18.80;99.90;;;;;;4964284;28;20488;-69
2022/10/08 06:03:59;;;;;;;4.63;2.30;;;18.80;99.90;;;;;;4962903;28;20521;-69
2022/10/08 06:06:29;;;;;;;3.72;2.20;;;19.00;99.90;;;;;;4947160;28;20429;-69
2022/10/08 06:09:00;;;;;;;4.03;2.25;;;19.00;99.90;;;;;;4941138;28;20488;-69
2022/10/08 06:11:31;;;;;;;4.68;2.13;;;19.10;99.90;;;;;;4947309;28;20713;-69
2022/10/08 06:13:59;;;;;;;4.38;2.30;;;19.10;99.90;;;;;;4949602;28;20417;-69
2022/10/08 06:16:28;;;;;;;4.28;2.20;;;19.20;99.90;;;;;;4947512;29;21089;-69
2022/10/08 06:18:55;;;;;;;4.50;2.22;;;19.30;99.90;;;;;;4947472;28;20421;-69
2022/10/08 06:21:26;;;;;;;3.13;2.00;;;19.40;99.90;;;;;;4946466;28;20419;-69
2022/10/08 06:24:01;;;;;;;5.20;2.30;;;19.40;99.90;;;;;;4942999;29;20447;-69
2022/10/08 06:26:32;;;;;;;4.03;2.22;;;19.50;99.90;;;;;;4941702;29;20423;-69
2022/10/08 06:28:59;;;;;;;3.67;2.25;;;19.60;99.90;;;;;;4949006;28;20424;-69
2022/10/08 06:31:26;;;;;;;4.22;2.20;;;19.60;99.90;;;;;;4947144;28;20425;-69
2022/10/08 06:33:57;;;;;;;5.00;2.20;;;19.70;99.90;;;;;;4941504;29;20484;-69
2022/10/08 06:36:27;;;;;;;5.25;2.30;;;19.70;99.90;;;;;;4943657;29;20422;-69
2022/10/08 06:38:57;;;;;;;5.03;2.40;;;19.80;99.90;;;;;;4945479;28;20417;-69
2022/10/08 06:41:25;;;;;;;3.55;2.10;;;19.90;99.90;;;;;;4921998;28;20429;-69
2022/10/08 06:43:52;;;;;;;7.22;2.17;;;19.90;99.90;;;;;;4945139;28;20792;-69
2022/10/08 06:46:19;;;;;;;5.63;2.00;;;20.00;99.90;;;;;;4946643;28;20760;-69
2022/10/08 06:48:49;;;;;;;3.00;2.10;;;20.10;99.90;;;;;;4949021;29;20437;-69
2022/10/08 06:51:18;;;;;;;5.45;2.00;;;20.10;99.90;;;;;;4943773;29;20453;-69
2022/10/08 06:53:52;;;;;;;7.20;2.10;;;20.10;99.90;;;;;;4966924;28;20516;-69
2022/10/08 06:56:24;;;;;;;4.30;2.10;;;20.10;99.90;;;;;;4963562;28;20850;-69
2022/10/08 06:58:55;;;;;;;6.70;2.10;;;20.20;99.90;;;;;;4962027;28;21021;-67
2022/10/08 07:01:27;;;;;;;2.85;1.90;;;20.20;99.90;;;;;;4948472;29;20429;-69
2022/10/08 07:03:59;;;;;;;9.57;2.33;;;20.30;99.90;;;;;;4945144;28;20431;-69
2022/10/08 07:06:26;;;;;;;4.25;2.13;;;20.40;99.90;;;;;;4945182;28;20431;-69
2022/10/08 07:08:55;;;;;;;4.18;2.10;;;20.50;99.90;;;;;;4946524;28;20476;-69
2022/10/08 07:11:23;;;;;;;3.60;2.10;;;20.60;99.90;;;;;;4940488;28;20432;-67
2022/10/08 07:13:49;;;;;;;3.90;1.80;;;20.70;99.90;;;;;;4947882;29;20436;-67
2022/10/08 07:16:20;;;;;;;4.55;2.10;;;20.80;99.90;;;;;;4937720;29;20425;-67
2022/10/08 07:18:50;;;;;;;5.53;1.95;;;20.90;99.90;;;;;;4945498;29;20423;-67
2022/10/08 07:21:19;;;;;;;5.60;2.00;;;20.80;99.90;;;;;;4946080;29;20425;-67
2022/10/08 07:23:49;;;;;;;8.40;2.03;;;20.80;99.90;;;;;;4938217;29;20448;-67
2022/10/08 07:26:22;;;;;;;6.40;2.05;;;20.80;99.90;;;;;;4939168;28;20437;-67
2022/10/08 07:29:09;;;;;;;4.00;1.90;;;20.70;99.90;;;;;;4946574;28;20497;-67
2022/10/08 07:31:38;;;;;;;4.88;2.10;;;20.50;99.90;;;;;;4944246;28;20434;-67
2022/10/08 07:34:09;;;;;;;3.50;1.92;;;20.30;99.90;;;;;;4950301;29;20440;-67
2022/10/08 07:36:37;;;;;;;2.72;1.70;;;20.20;99.90;;;;;;4945796;29;20427;-67
2022/10/08 07:39:19;;;;;;;3.60;1.95;;;20.00;99.90;;;;;;4950708;29;20485;-67
2022/10/08 07:41:46;;;;;;;4.03;1.90;;;20.00;99.90;;;;;;4950491;29;20417;-67
2022/10/08 07:44:14;;;;;;;3.75;1.98;;;20.00;99.90;;;;;;4949355;29;20472;-67
2022/10/08 07:46:47;;;;;;;4.38;2.10;;;20.10;99.90;;;;;;4949041;29;20426;-67
2022/10/08 07:49:16;;;;;;;6.97;2.20;;;20.20;99.90;;;;;;4948385;29;20425;-67
2022/10/08 07:51:43;;;;;;;3.75;2.00;;;20.20;99.90;;;;;;4950811;28;20476;-67
2022/10/08 07:54:17;;;;;;;4.15;1.90;;;20.20;99.90;;;;;;4948218;29;20544;-68
2022/10/08 07:56:44;;;;;;;5.13;2.03;;;20.20;99.90;;;;;;4946394;28;20426;-67
2022/10/08 07:59:13;;;;;;;2.88;1.95;;;20.20;99.90;;;;;;4949852;29;20413;-67
2022/10/08 08:01:41;;;;;;;3.97;2.00;;;20.20;99.90;;;;;;4947042;29;20414;-67
2022/10/08 08:04:10;;;;;;;2.88;1.85;;;20.20;99.90;;;;;;4947466;28;20438;-67
2022/10/08 08:06:48;;;;;;;5.18;2.00;;;20.20;99.90;;;;;;4946338;28;21156;-67
2022/10/08 08:09:15;;;;;;;3.50;1.90;;;20.30;99.90;;;;;;4949137;28;20499;-67
2022/10/08 08:11:42;;;;;;;4.15;2.00;;;20.50;99.90;;;;;;4947884;28;20551;-69
2022/10/08 08:14:11;;;;;;;2.58;1.65;;;20.70;99.90;;;;;;4946652;28;20444;-67
2022/10/08 08:16:39;;;;;;;3.88;1.88;;;20.80;99.90;;;;;;4948960;28;20443;-67
2022/10/08 08:19:05;;;;;;;4.73;1.90;;;20.90;99.90;;;;;;4941470;28;20418;-67
2022/10/08 08:21:37;;;;;;;6.07;1.88;;;21.20;99.90;;;;;;4949723;28;20519;-67
2022/10/08 08:24:11;;;;;;;4.88;2.00;;;21.40;99.90;;;;;;4946126;29;20442;-66
2022/10/08 08:26:42;;;;;;;3.03;1.60;;;21.50;99.90;;;;;;4944362;28;20418;-67
2022/10/08 08:29:17;;;;;;;3.45;1.73;;;21.80;99.90;;;;;;4947711;28;20444;-66
2022/10/08 08:31:48;;;;;;;3.72;1.77;;;21.90;99.90;;;;;;4954352;28;20441;-67
2022/10/08 08:34:23;;;;;;;4.85;1.88;;;21.90;99.90;;;;;;4949305;29;20425;-67
2022/10/08 08:36:55;;;;;;;3.17;1.70;;;21.80;99.90;;;;;;4963917;28;21095;-67
2022/10/08 08:39:31;;;;;;;4.63;1.90;;;21.70;99.90;;;;;;4948414;28;20850;-67
2022/10/08 08:42:13;;;;;;;9.05;1.80;;;21.60;99.90;;;;;;4927596;29;20526;-67
2022/10/08 08:44:43;;;;;;;5.55;1.63;;;21.60;99.90;;;;;;4939651;29;20614;-67
2022/10/08 08:47:22;;;;;;;4.45;1.50;;;21.70;99.90;;;;;;4947611;29;20919;-68
2022/10/08 08:49:56;;;;;;;5.88;1.60;;;21.70;99.90;;;;;;4940454;29;20791;-67
2022/10/08 08:52:28;;;;;;;8.55;1.60;;;21.60;99.90;;;;;;4944964;28;20459;-68
2022/10/08 08:54:55;;;;;;;5.75;1.67;;;21.50;99.90;;;;;;4944468;29;20449;-67
2022/10/08 08:57:39;;;;;;;7.57;1.50;;;21.40;99.90;;;;;;4939877;29;20421;-67
2022/10/08 09:00:34;;;;;;;7.22;1.80;;;21.40;99.90;;;;;;4962184;28;20462;-67
2022/10/08 09:03:13;;;;;;;5.70;1.83;;;21.40;99.90;;;;;;4947688;28;20187;-67
2022/10/08 09:05:44;;;;;;;7.90;2.20;;;21.30;99.90;;;;;;4944962;29;20234;-67
2022/10/08 09:08:29;;;;;;;6.20;2.30;;;21.30;99.90;;;;;;4948456;28;20684;-67
2022/10/08 09:11:01;;;;;;;4.57;1.90;;;21.30;99.90;;;;;;4947232;29;20282;-68
2022/10/08 09:13:35;;;;;;;5.78;2.10;;;21.40;99.90;;;;;;4962269;28;20440;-68
2022/10/08 09:16:02;;;;;;;5.40;2.10;;;21.60;99.90;;;;;;4961225;28;20434;-67
2022/10/08 09:18:30;;;;;;;6.28;1.92;;;21.70;99.90;;;;;;4951093;28;20445;-67
2022/10/08 09:21:00;;;;;;;4.45;2.17;;;21.80;99.90;;;;;;4942300;28;20431;-67
2022/10/08 09:23:35;;;;;;;5.15;2.10;;;21.70;99.90;;;;;;4945387;28;20436;-67
2022/10/08 09:26:07;;;;;;;6.53;2.25;;;21.60;99.90;;;;;;4958917;28;20421;-67
2022/10/08 09:28:40;;;;;;;6.38;2.22;;;21.60;99.90;;;;;;4924406;29;20433;-67
2022/10/08 09:31:40;;;;;;;6.88;2.47;;;21.50;99.90;;;;;;4945988;28;20437;-67
2022/10/08 09:34:10;;;;;;;12.00;2.83;;;21.50;99.90;;;;;;4952582;28;20924;-67
2022/10/08 09:37:00;;;;;;;8.27;2.80;;;21.50;99.90;;;;;;4940886;28;20521;-67
2022/10/08 09:39:36;;;;;;;17.93;3.90;;;21.30;99.90;;;;;;4962284;28;20421;-68
2022/10/08 09:42:17;;;;;;;14.55;4.00;;;21.00;99.90;;;;;;4947508;29;20521;-68
2022/10/08 09:44:57;;;;;;;10.10;3.33;;;20.90;99.90;;;;;;4941123;28;20422;-68
2022/10/08 09:47:26;;;;;;;7.70;3.00;;;20.80;99.90;;;;;;4944133;28;20570;-68
2022/10/08 09:50:17;;;;;;;9.50;3.22;;;20.60;99.90;;;;;;4944338;29;20437;-68
2022/10/08 09:52:48;;;;;;;5.80;2.83;;;20.50;99.90;;;;;;4962117;28;20507;-68
2022/10/08 09:55:30;;;;;;;9.37;3.20;;;20.40;99.90;;;;;;4956024;28;20440;-68
2022/10/08 09:57:59;;;;;;;6.35;3.17;;;20.40;99.90;;;;;;4957831;28;20864;-68
2022/10/08 10:00:34;;;;;;;5.50;3.15;;;20.40;99.90;;;;;;4940608;28;20891;-68
2022/10/08 10:03:06;;;;;;;6.10;3.00;;;20.40;99.90;;;;;;4928140;29;20934;-68
2022/10/08 10:05:36;;;;;;;12.07;3.20;;;20.40;99.90;;;;;;4946889;28;20943;-68
2022/10/08 10:08:02;;;;;;;6.43;2.63;;;20.60;99.90;;;;;;4945802;28;20422;-68
2022/10/08 10:10:40;;;;;;;6.90;2.70;;;20.70;99.90;;;;;;4960646;28;20436;-69
2022/10/08 10:13:21;;;;;;;8.02;3.15;;;20.70;99.90;;;;;;4962759;28;20814;-68
2022/10/08 10:16:03;;;;;;;8.55;3.05;;;20.80;99.90;;;;;;4946289;29;20426;-68
2022/10/08 10:18:42;;;;;;;5.70;2.43;;;21.00;99.90;;;;;;4946717;28;20556;-68
2022/10/08 10:21:19;;;;;;;40.77;13.63;;;21.10;99.90;;;;;;4942690;28;20433;-68
2022/10/08 10:24:19;;;;;;;9.70;4.03;;;21.70;99.90;;;;;;4933765;28;20439;-68
2022/10/08 10:26:47;;;;;;;42.72;11.60;;;22.10;99.90;;;;;;4953632;28;20229;-68
2022/10/08 10:29:21;;;;;;;55.27;12.57;;;22.40;99.90;;;;;;4950409;28;20301;-67
2022/10/08 10:32:05;;;;;;;7.10;2.35;;;22.10;99.90;;;;;;4948607;28;20609;-68
2022/10/08 10:34:37;;;;;;;4.20;1.98;;;22.30;99.90;;;;;;4962907;28;20574;-69
2022/10/08 10:37:15;;;;;;;8.25;2.58;;;22.80;99.90;;;;;;4964459;28;20242;-68
2022/10/08 10:40:15;;;;;;;4.03;2.00;;;23.20;99.90;;;;;;4949518;29;20190;-70
2022/10/08 10:43:06;;;;;;;3.28;1.70;;;23.20;99.90;;;;;;4952705;29;20629;-70
2022/10/08 10:45:34;;;;;;;3.42;1.55;;;23.30;99.90;;;;;;4957380;28;20199;-70
2022/10/08 10:48:03;;;;;;;2.42;1.60;;;23.50;99.90;;;;;;4950783;28;20219;-70
2022/10/08 10:50:44;;;;;;;3.85;1.65;;;23.10;99.90;;;;;;4950367;29;20183;-70
2022/10/08 10:54:16;;;;;;;6.30;1.77;;;22.70;99.90;;;;;;4947548;29;20300;-70
2022/10/08 10:56:53;;;;;;;4.00;1.90;;;22.80;99.90;;;;;;4983424;28;20256;-70
2022/10/08 10:59:58;;;;;;;6.43;1.95;;;23.00;99.90;;;;;;4946984;29;20253;-69
2022/10/08 11:02:42;;;;;;;5.78;1.80;;;23.10;99.90;;;;;;4960257;28;20882;-70
2022/10/08 11:05:11;;;;;;;4.53;1.92;;;23.10;99.90;;;;;;4949697;28;20194;-70
2022/10/08 11:07:56;;;;;;;2.03;1.50;;;23.00;99.90;;;;;;4946107;28;20286;-68
2022/10/08 11:10:46;;;;;;;4.20;1.60;;;22.80;99.90;;;;;;4942440;29;20269;-70
2022/10/08 11:13:28;;;;;;;8.10;1.93;;;22.50;99.90;;;;;;4951095;29;20253;-69
2022/10/08 11:16:45;;;;;;;3.90;1.70;;;22.70;99.90;;;;;;4948841;28;20664;-70
2022/10/08 11:19:51;;;;;;;5.57;1.50;;;22.90;99.90;;;;;;4946426;29;20188;-70
2022/10/08 11:22:44;;;;;;;7.30;1.67;;;22.90;99.90;;;;;;4959600;28;20186;-69
2022/10/08 11:25:16;;;;;;;3.15;1.70;;;23.20;99.90;;;;;;4950309;29;20198;-67
2022/10/08 11:28:44;;;;;;;4.80;1.50;;;23.20;99.90;;;;;;4950703;28;20194;-70
2022/10/08 11:31:33;;;;;;;4.47;1.67;;;23.20;99.90;;;;;;4983962;28;20220;-70
2022/10/08 11:34:02;;;;;;;5.27;1.67;;;23.30;99.90;;;;;;4981007;28;20667;-69
2022/10/08 11:36:42;;;;;;;4.07;1.97;;;23.50;99.90;;;;;;4964609;28;20314;-70
2022/10/08 11:39:44;;;;;;;4.72;1.58;;;23.50;99.90;;;;;;4951029;28;20738;-70
2022/10/08 11:42:32;;;;;;;8.57;1.90;;;23.60;99.90;;;;;;4944912;29;20193;-70
2022/10/08 11:45:45;;;;;;;2.50;1.60;;;23.60;99.90;;;;;;4955777;28;20195;-70
2022/10/08 11:48:33;;;;;;;3.38;1.60;;;23.80;99.90;;;;;;4952372;28;20519;-70
2022/10/08 11:51:18;;;;;;;3.28;1.92;;;23.80;99.90;;;;;;4948607;28;20225;-70
2022/10/08 11:54:14;;;;;;;2.17;1.50;;;23.80;99.90;;;;;;4943099;29;20661;-70
2022/10/08 11:57:19;;;;;;;4.43;1.48;;;23.80;99.90;;;;;;4947407;28;20298;-70
2022/10/08 11:59:57;;;;;;;3.83;1.42;;;23.80;99.90;;;;;;4943616;29;20229;-70
2022/10/08 12:02:24;;;;;;;3.88;1.52;;;23.60;99.90;;;;;;4944102;29;20193;-70
2022/10/08 12:04:53;;;;;;;7.55;1.83;;;23.60;99.90;;;;;;4943173;29;20190;-68
2022/10/08 12:07:38;;;;;;;4.85;1.63;;;23.80;99.90;;;;;;4948211;28;20762;-70
2022/10/08 12:10:04;;;;;;;5.40;1.65;;;23.70;99.90;;;;;;4963762;28;20202;-70
2022/10/08 12:12:49;;;;;;;4.25;1.55;;;23.60;99.90;;;;;;4949313;28;20222;-70
2022/10/08 12:15:26;;;;;;;7.25;1.70;;;23.60;99.90;;;;;;4940815;29;20209;-70
2022/10/08 12:18:22;;;;;;;5.13;1.80;;;23.70;99.90;;;;;;4950176;28;20219;-69
2022/10/08 12:21:16;;;;;;;4.72;1.60;;;23.60;99.90;;;;;;4946151;28;20195;-69
2022/10/08 12:23:45;;;;;;;4.72;1.83;;;23.50;99.90;;;;;;4947723;29;20192;-69
2022/10/08 12:26:14;;;;;;;6.80;1.90;;;23.50;99.90;;;;;;4916065;29;20522;-69
2022/10/08 12:28:50;;;;;;;6.80;2.00;;;23.60;99.90;;;;;;4932178;29;20184;-69
2022/10/08 12:31:25;;;;;;;8.63;2.20;;;23.70;99.90;;;;;;4960890;28;20194;-69
2022/10/08 12:34:00;;;;;;;4.78;2.22;;;23.70;99.90;;;;;;4952228;28;20190;-69
2022/10/08 12:37:01;;;;;;;4.30;2.03;;;23.70;99.90;;;;;;4965433;28;20222;-69
2022/10/08 12:39:42;;;;;;;5.78;2.35;;;23.70;99.90;;;;;;4943662;29;20663;-69
2022/10/08 12:42:30;;;;;;;9.60;2.25;;;23.60;99.90;;;;;;4966990;28;20236;-69
2022/10/08 12:45:17;;;;;;;6.65;2.65;;;23.70;99.90;;;;;;4937485;28;20305;-69
2022/10/08 12:48:30;;;;;;;6.22;2.10;;;23.50;99.90;;;;;;4947774;29;20194;-69
2022/10/08 12:51:24;;;;;;;3.90;2.05;;;23.30;99.90;;;;;;4961229;28;20203;-69
2022/10/08 12:53:57;;;;;;;4.72;1.95;;;23.40;99.90;;;;;;4934610;29;20202;-69
2022/10/08 12:56:28;;;;;;;11.60;2.40;;;23.40;99.90;;;;;;4932366;29;20205;-69
2022/10/08 12:59:00;;;;;;;11.00;2.28;;;23.30;99.90;;;;;;4951752;28;20178;-70
2022/10/08 13:01:27;;;;;;;3.83;2.33;;;23.20;99.90;;;;;;4950685;29;20187;-69
2022/10/08 13:04:21;;;;;;;5.03;2.20;;;23.10;99.90;;;;;;4947686;28;20187;-69
2022/10/08 13:06:51;;;;;;;6.82;2.10;;;23.10;99.90;;;;;;4946361;29;20206;-69
2022/10/08 13:09:32;;;;;;;5.23;1.80;;;23.10;99.90;;;;;;4950626;29;20732;-69
2022/10/08 13:12:04;;;;;;;5.40;1.80;;;23.10;99.90;;;;;;4951394;28;20255;-69
2022/10/08 13:14:36;;;;;;;5.25;2.58;;;23.10;99.90;;;;;;4942391;28;20191;-69
2022/10/08 13:17:05;;;;;;;9.48;2.47;;;23.10;99.90;;;;;;4950464;29;20214;-69
2022/10/08 13:19:38;;;;;;;4.80;2.00;;;23.00;99.90;;;;;;4950241;29;20183;-69
2022/10/08 13:22:33;;;;;;;4.83;2.03;;;23.00;99.90;;;;;;4966079;28;20187;-69
2022/10/08 13:24:59;;;;;;;3.50;2.00;;;23.00;99.90;;;;;;4962176;28;20257;-69
2022/10/08 13:27:32;;;;;;;4.80;2.07;;;23.00;99.90;;;;;;4934428;29;20198;-69
2022/10/08 13:30:21;;;;;;;3.07;1.70;;;22.90;99.90;;;;;;4965628;28;20202;-69